sensor_id;sensor_type;location;lat;lon;timestamp;pressure;altitude;pressure_sealevel;temperature;humidity
50977;BME280;36992;48.200;12.418;2023-04-25T00:01:53;96128.28;;;12.37;45.91
50977;BME280;36992;48.200;12.418;2023-04-25T00:04:19;96119.38;;;12.37;46.14
50977;BME280;36992;48.200;12.418;2023-04-25T00:06:46;96122.09;;;12.37;46.29
50977;BME280;36992;48.200;12.418;2023-04-25T00:09:13;96121.31;;;12.36;46.18
50977;BME280;36992;48.200;12.418;2023-04-25T00:11:41;96116.69;;;12.37;45.93
50977;BME280;36992;48.200;12.418;2023-04-25T00:14:08;96117.00;;;12.35;45.84
50977;BME280;36992;48.200;12.418;2023-04-25T00:16:35;96111.94;;;12.34;45.87
50977;BME280;36992;48.200;12.418;2023-04-25T00:19:02;96114.13;;;12.32;46.22
50977;BME280;36992;48.200;12.418;2023-04-25T00:21:29;96113.66;;;12.30;46.05
50977;BME280;36992;48.200;12.418;2023-04-25T00:23:56;96105.56;;;12.30;46.39
50977;BME280;36992;48.200;12.418;2023-04-25T00:26:23;96105.09;;;12.27;46.14
50977;BME280;36992;48.200;12.418;2023-04-25T00:28:51;96106.22;;;12.26;46.23
50977;BME280;36992;48.200;12.418;2023-04-25T00:31:18;96106.84;;;12.23;46.47
50977;BME280;36992;48.200;12.418;2023-04-25T00:33:44;96102.09;;;12.20;46.45
50977;BME280;36992;48.200;12.418;2023-04-25T00:36:11;96112.41;;;12.18;46.03
50977;BME280;36992;48.200;12.418;2023-04-25T00:38:37;96106.53;;;12.16;46.15
50977;BME280;36992;48.200;12.418;2023-04-25T00:41:05;96106.53;;;12.16;46.48
50977;BME280;36992;48.200;12.418;2023-04-25T00:43:32;96109.84;;;12.13;46.47
50977;BME280;36992;48.200;12.418;2023-04-25T00:46:01;96110.34;;;12.15;45.84
50977;BME280;36992;48.200;12.418;2023-04-25T00:48:27;96103.97;;;12.11;46.51
50977;BME280;36992;48.200;12.418;2023-04-25T00:50:55;96107.31;;;12.08;46.35
50977;BME280;36992;48.200;12.418;2023-04-25T00:53:24;96102.22;;;12.06;46.46
50977;BME280;36992;48.200;12.418;2023-04-25T00:55:52;96099.34;;;12.03;46.67
50977;BME280;36992;48.200;12.418;2023-04-25T00:58:19;96088.06;;;12.00;46.41
50977;BME280;36992;48.200;12.418;2023-04-25T01:00:46;96082.50;;;11.97;46.99
50977;BME280;36992;48.200;12.418;2023-04-25T01:03:15;96070.91;;;11.96;46.56
50977;BME280;36992;48.200;12.418;2023-04-25T01:05:43;96079.63;;;11.93;47.10
50977;BME280;36992;48.200;12.418;2023-04-25T01:08:09;96088.84;;;11.92;47.08
50977;BME280;36992;48.200;12.418;2023-04-25T01:10:36;96084.56;;;11.91;47.21
50977;BME280;36992;48.200;12.418;2023-04-25T01:13:03;96101.56;;;11.92;47.32
50977;BME280;36992;48.200;12.418;2023-04-25T01:15:29;96098.38;;;11.90;47.04
50977;BME280;36992;48.200;12.418;2023-04-25T01:17:56;96089.50;;;11.89;47.61
50977;BME280;36992;48.200;12.418;2023-04-25T01:20:26;96088.06;;;11.92;47.07
50977;BME280;36992;48.200;12.418;2023-04-25T01:22:55;96097.59;;;11.89;47.26
50977;BME280;36992;48.200;12.418;2023-04-25T01:25:22;96089.00;;;11.87;47.92
50977;BME280;36992;48.200;12.418;2023-04-25T01:27:49;96092.19;;;11.89;47.83
50977;BME280;36992;48.200;12.418;2023-04-25T01:30:15;96082.16;;;11.90;48.10
50977;BME280;36992;48.200;12.418;2023-04-25T01:32:42;96083.75;;;11.91;47.53
50977;BME280;36992;48.200;12.418;2023-04-25T01:35:11;96083.91;;;11.94;47.66
50977;BME280;36992;48.200;12.418;2023-04-25T01:37:38;96077.75;;;11.94;47.66
50977;BME280;36992;48.200;12.418;2023-04-25T01:40:08;96082.19;;;11.98;47.75
50977;BME280;36992;48.200;12.418;2023-04-25T01:42:37;96086.78;;;11.98;47.56
50977;BME280;36992;48.200;12.418;2023-04-25T01:45:04;96084.88;;;11.98;47.94
50977;BME280;36992;48.200;12.418;2023-04-25T01:47:31;96081.06;;;11.99;47.86
50977;BME280;36992;48.200;12.418;2023-04-25T01:50:00;96078.38;;;11.99;47.81
50977;BME280;36992;48.200;12.418;2023-04-25T01:52:26;96079.47;;;11.98;47.66
50977;BME280;36992;48.200;12.418;2023-04-25T01:54:53;96074.09;;;11.98;47.51
50977;BME280;36992;48.200;12.418;2023-04-25T01:57:21;96084.88;;;11.98;47.53
50977;BME280;36992;48.200;12.418;2023-04-25T01:59:48;96075.19;;;11.97;48.06
50977;BME280;36992;48.200;12.418;2023-04-25T02:02:15;96080.13;;;11.95;47.78
50977;BME280;36992;48.200;12.418;2023-04-25T02:04:42;96074.72;;;11.95;47.74
50977;BME280;36992;48.200;12.418;2023-04-25T02:07:08;96066.94;;;11.94;47.74
50977;BME280;36992;48.200;12.418;2023-04-25T02:09:35;96072.66;;;11.92;47.40
50977;BME280;36992;48.200;12.418;2023-04-25T02:12:01;96070.59;;;11.89;47.84
50977;BME280;36992;48.200;12.418;2023-04-25T02:14:29;96064.09;;;11.90;47.58
50977;BME280;36992;48.200;12.418;2023-04-25T02:16:56;96066.63;;;11.86;48.03
50977;BME280;36992;48.200;12.418;2023-04-25T02:19:22;96076.63;;;11.86;47.74
50977;BME280;36992;48.200;12.418;2023-04-25T02:21:49;96071.88;;;11.83;47.88
50977;BME280;36992;48.200;12.418;2023-04-25T02:24:15;96068.66;;;11.81;47.74
50977;BME280;36992;48.200;12.418;2023-04-25T02:26:42;96071.72;;;11.79;47.82
50977;BME280;36992;48.200;12.418;2023-04-25T02:29:09;96064.22;;;11.76;47.92
50977;BME280;36992;48.200;12.418;2023-04-25T02:31:37;96052.97;;;11.74;47.66
50977;BME280;36992;48.200;12.418;2023-04-25T02:34:03;96057.56;;;11.73;48.11
50977;BME280;36992;48.200;12.418;2023-04-25T02:36:30;96059.78;;;11.71;48.25
50977;BME280;36992;48.200;12.418;2023-04-25T02:38:59;96048.19;;;11.71;48.43
50977;BME280;36992;48.200;12.418;2023-04-25T02:41:26;96058.97;;;11.71;48.26
50977;BME280;36992;48.200;12.418;2023-04-25T02:43:52;96062.47;;;11.71;48.12
50977;BME280;36992;48.200;12.418;2023-04-25T02:46:20;96057.56;;;11.73;48.24
50977;BME280;36992;48.200;12.418;2023-04-25T02:48:49;96049.75;;;11.72;47.78
50977;BME280;36992;48.200;12.418;2023-04-25T02:51:16;96043.09;;;11.69;48.23
50977;BME280;36992;48.200;12.418;2023-04-25T02:53:42;96044.22;;;11.68;48.48
50977;BME280;36992;48.200;12.418;2023-04-25T02:56:09;96048.84;;;11.68;48.24
50977;BME280;36992;48.200;12.418;2023-04-25T02:58:35;96049.13;;;11.66;48.05
50977;BME280;36992;48.200;12.418;2023-04-25T03:01:02;96044.84;;;11.65;48.23
50977;BME280;36992;48.200;12.418;2023-04-25T03:03:28;96043.28;;;11.64;48.47
50977;BME280;36992;48.200;12.418;2023-04-25T03:05:56;96046.44;;;11.66;48.22
50977;BME280;36992;48.200;12.418;2023-04-25T03:08:23;96048.97;;;11.63;48.43
50977;BME280;36992;48.200;12.418;2023-04-25T03:10:50;96044.69;;;11.62;48.11
50977;BME280;36992;48.200;12.418;2023-04-25T03:13:18;96046.13;;;11.59;48.47
50977;BME280;36992;48.200;12.418;2023-04-25T03:15:45;96040.22;;;11.57;48.58
50977;BME280;36992;48.200;12.418;2023-04-25T03:18:11;96035.94;;;11.56;48.63
50977;BME280;36992;48.200;12.418;2023-04-25T03:20:38;96042.44;;;11.55;48.42
50977;BME280;36992;48.200;12.418;2023-04-25T03:23:08;96027.06;;;11.55;48.35
50977;BME280;36992;48.200;12.418;2023-04-25T03:25:34;96038.47;;;11.52;48.45
50977;BME280;36992;48.200;12.418;2023-04-25T03:28:01;96041.47;;;11.51;48.84
50977;BME280;36992;48.200;12.418;2023-04-25T03:30:27;96041.00;;;11.49;48.36
50977;BME280;36992;48.200;12.418;2023-04-25T03:32:54;96034.03;;;11.47;48.33
50977;BME280;36992;48.200;12.418;2023-04-25T03:35:20;96034.66;;;11.44;48.70
50977;BME280;36992;48.200;12.418;2023-04-25T03:37:48;96031.47;;;11.42;49.17
50977;BME280;36992;48.200;12.418;2023-04-25T03:40:16;96039.56;;;11.42;48.64
50977;BME280;36992;48.200;12.418;2023-04-25T03:42:43;96031.31;;;11.39;48.77
50977;BME280;36992;48.200;12.418;2023-04-25T03:45:10;96043.22;;;11.38;48.72
50977;BME280;36992;48.200;12.418;2023-04-25T03:47:36;96047.31;;;11.35;48.94
50977;BME280;36992;48.200;12.418;2023-04-25T03:50:03;96047.94;;;11.32;48.95
50977;BME280;36992;48.200;12.418;2023-04-25T03:52:30;96043.19;;;11.29;49.40
50977;BME280;36992;48.200;12.418;2023-04-25T03:54:56;96049.69;;;11.28;48.91
50977;BME280;36992;48.200;12.418;2023-04-25T03:57:24;96043.19;;;11.29;49.05
50977;BME280;36992;48.200;12.418;2023-04-25T03:59:51;96046.19;;;11.27;49.00
50977;BME280;36992;48.200;12.418;2023-04-25T04:02:17;96038.41;;;11.26;49.27
50977;BME280;36992;48.200;12.418;2023-04-25T04:04:44;96039.22;;;11.26;49.50
50977;BME280;36992;48.200;12.418;2023-04-25T04:07:10;96037.31;;;11.27;49.35
50977;BME280;36992;48.200;12.418;2023-04-25T04:09:37;96038.91;;;11.28;49.65
50977;BME280;36992;48.200;12.418;2023-04-25T04:12:04;96040.78;;;11.27;49.50
50977;BME280;36992;48.200;12.418;2023-04-25T04:14:32;96039.38;;;11.30;49.27
50977;BME280;36992;48.200;12.418;2023-04-25T04:16:58;96034.28;;;11.28;49.59
50977;BME280;36992;48.200;12.418;2023-04-25T04:19:25;96035.56;;;11.31;49.50
50977;BME280;36992;48.200;12.418;2023-04-25T04:21:52;96037.16;;;11.32;49.09
50977;BME280;36992;48.200;12.418;2023-04-25T04:24:18;96044.16;;;11.33;49.51
50977;BME280;36992;48.200;12.418;2023-04-25T04:26:45;96046.03;;;11.32;49.28
50977;BME280;36992;48.200;12.418;2023-04-25T04:29:12;96047.94;;;11.32;48.92
50977;BME280;36992;48.200;12.418;2023-04-25T04:31:47;96043.34;;;11.32;49.46
50977;BME280;36992;48.200;12.418;2023-04-25T04:34:14;96044.78;;;11.30;49.45
50977;BME280;36992;48.200;12.418;2023-04-25T04:36:41;96050.16;;;11.30;49.54
50977;BME280;36992;48.200;12.418;2023-04-25T04:39:08;96044.28;;;11.28;49.59
50977;BME280;36992;48.200;12.418;2023-04-25T04:41:36;96046.50;;;11.26;49.43
50977;BME280;36992;48.200;12.418;2023-04-25T04:44:02;96044.44;;;11.23;49.24
50977;BME280;36992;48.200;12.418;2023-04-25T04:46:29;96041.28;;;11.20;49.44
50977;BME280;36992;48.200;12.418;2023-04-25T04:48:57;96047.28;;;11.17;49.37
50977;BME280;36992;48.200;12.418;2023-04-25T04:51:24;96049.00;;;11.13;49.64
50977;BME280;36992;48.200;12.418;2023-04-25T04:53:50;96037.25;;;11.09;49.77
50977;BME280;36992;48.200;12.418;2023-04-25T04:56:17;96044.84;;;11.07;49.43
50977;BME280;36992;48.200;12.418;2023-04-25T04:58:46;96037.69;;;11.02;49.68
50977;BME280;36992;48.200;12.418;2023-04-25T05:01:14;96032.63;;;11.01;49.41
50977;BME280;36992;48.200;12.418;2023-04-25T05:03:41;96036.41;;;11.00;49.13
50977;BME280;36992;48.200;12.418;2023-04-25T05:06:09;96045.63;;;10.99;48.85
50977;BME280;36992;48.200;12.418;2023-04-25T05:08:36;96050.03;;;10.95;49.59
50977;BME280;36992;48.200;12.418;2023-04-25T05:11:03;96036.09;;;10.92;49.15
50977;BME280;36992;48.200;12.418;2023-04-25T05:13:29;96035.59;;;10.90;49.01
50977;BME280;36992;48.200;12.418;2023-04-25T05:15:56;96033.22;;;10.89;49.14
50977;BME280;36992;48.200;12.418;2023-04-25T05:18:22;96027.03;;;10.88;49.25
50977;BME280;36992;48.200;12.418;2023-04-25T05:20:49;96024.66;;;10.87;49.28
50977;BME280;36992;48.200;12.418;2023-04-25T05:23:17;96029.72;;;10.88;49.13
50977;BME280;36992;48.200;12.418;2023-04-25T05:25:43;96028.94;;;10.88;49.31
50977;BME280;36992;48.200;12.418;2023-04-25T05:28:12;96036.72;;;10.89;49.44
50977;BME280;36992;48.200;12.418;2023-04-25T05:30:38;96043.69;;;10.90;49.93
50977;BME280;36992;48.200;12.418;2023-04-25T05:33:05;96042.28;;;10.93;50.30
50977;BME280;36992;48.200;12.418;2023-04-25T05:35:32;96037.06;;;10.97;49.54
50977;BME280;36992;48.200;12.418;2023-04-25T05:37:58;96040.69;;;11.01;49.75
50977;BME280;36992;48.200;12.418;2023-04-25T05:40:26;96045.19;;;11.05;49.62
50977;BME280;36992;48.200;12.418;2023-04-25T05:42:53;96030.59;;;11.06;49.35
50977;BME280;36992;48.200;12.418;2023-04-25T05:45:20;96033.75;;;11.09;49.33
50977;BME280;36992;48.200;12.418;2023-04-25T05:47:46;96039.31;;;11.12;49.54
50977;BME280;36992;48.200;12.418;2023-04-25T05:50:13;96037.59;;;11.16;48.89
50977;BME280;36992;48.200;12.418;2023-04-25T05:52:39;96031.09;;;11.17;48.67
50977;BME280;36992;48.200;12.418;2023-04-25T05:55:06;96035.06;;;11.20;49.30
50977;BME280;36992;48.200;12.418;2023-04-25T05:57:34;96030.66;;;11.24;49.41
50977;BME280;36992;48.200;12.418;2023-04-25T06:00:01;96031.44;;;11.25;49.23
50977;BME280;36992;48.200;12.418;2023-04-25T06:02:28;96030.81;;;11.28;49.45
50977;BME280;36992;48.200;12.418;2023-04-25T06:04:54;96035.56;;;11.31;49.53
50977;BME280;36992;48.200;12.418;2023-04-25T06:07:21;96027.97;;;11.33;49.26
50977;BME280;36992;48.200;12.418;2023-04-25T06:09:48;96033.53;;;11.37;49.55
50977;BME280;36992;48.200;12.418;2023-04-25T06:12:14;96030.50;;;11.38;49.21
50977;BME280;36992;48.200;12.418;2023-04-25T06:14:42;96018.00;;;11.42;49.10
50977;BME280;36992;48.200;12.418;2023-04-25T06:17:09;96026.25;;;11.46;49.32
50977;BME280;36992;48.200;12.418;2023-04-25T06:19:36;96018.66;;;11.48;49.45
50977;BME280;36992;48.200;12.418;2023-04-25T06:22:02;96018.81;;;11.52;49.43
50977;BME280;36992;48.200;12.418;2023-04-25T06:24:29;96025.16;;;11.56;49.57
50977;BME280;36992;48.200;12.418;2023-04-25T06:26:55;96020.72;;;11.60;49.42
50977;BME280;36992;48.200;12.418;2023-04-25T06:29:22;96023.59;;;11.64;49.97
50977;BME280;36992;48.200;12.418;2023-04-25T06:31:50;96029.13;;;11.67;50.35
50977;BME280;36992;48.200;12.418;2023-04-25T06:34:16;96029.59;;;11.69;49.50
50977;BME280;36992;48.200;12.418;2023-04-25T06:36:43;96027.09;;;11.73;49.42
50977;BME280;36992;48.200;12.418;2023-04-25T06:39:10;96027.56;;;11.75;49.42
50977;BME280;36992;48.200;12.418;2023-04-25T06:41:37;96025.34;;;11.77;49.43
50977;BME280;36992;48.200;12.418;2023-04-25T06:44:03;96019.63;;;11.79;49.36
50977;BME280;36992;48.200;12.418;2023-04-25T06:46:30;96018.97;;;11.82;49.25
50977;BME280;36992;48.200;12.418;2023-04-25T06:48:58;96026.47;;;11.85;49.23
50977;BME280;36992;48.200;12.418;2023-04-25T06:51:24;96021.06;;;11.85;49.90
50977;BME280;36992;48.200;12.418;2023-04-25T06:53:53;96022.66;;;11.86;49.00
50977;BME280;36992;48.200;12.418;2023-04-25T06:56:20;96015.00;;;11.88;49.52
50977;BME280;36992;48.200;12.418;2023-04-25T06:58:47;96008.53;;;11.89;49.36
50977;BME280;36992;48.200;12.418;2023-04-25T07:01:13;96010.56;;;11.92;49.78
50977;BME280;36992;48.200;12.418;2023-04-25T07:03:40;96012.16;;;11.93;49.75
50977;BME280;36992;48.200;12.418;2023-04-25T07:06:08;96010.44;;;11.97;49.28
50977;BME280;36992;48.200;12.418;2023-04-25T07:08:34;96018.22;;;11.99;49.91
50977;BME280;36992;48.200;12.418;2023-04-25T07:11:01;96017.88;;;12.00;49.22
50977;BME280;36992;48.200;12.418;2023-04-25T07:13:27;96016.28;;;11.99;49.25
50977;BME280;36992;48.200;12.418;2023-04-25T07:15:54;96023.28;;;12.00;49.01
50977;BME280;36992;48.200;12.418;2023-04-25T07:18:21;96017.88;;;12.00;48.32
50977;BME280;36992;48.200;12.418;2023-04-25T07:20:47;96023.28;;;12.00;48.62
50977;BME280;36992;48.200;12.418;2023-04-25T07:23:15;96017.56;;;12.02;49.70
50977;BME280;36992;48.200;12.418;2023-04-25T07:25:42;96022.19;;;12.01;49.08
50977;BME280;36992;48.200;12.418;2023-04-25T07:28:08;96019.47;;;12.01;49.05
50977;BME280;36992;48.200;12.418;2023-04-25T07:30:35;96015.66;;;12.03;49.45
50977;BME280;36992;48.200;12.418;2023-04-25T07:33:02;96019.47;;;12.01;49.13
50977;BME280;36992;48.200;12.418;2023-04-25T07:35:28;96027.25;;;12.03;48.27
50977;BME280;36992;48.200;12.418;2023-04-25T07:37:55;96024.06;;;12.01;47.85
50977;BME280;36992;48.200;12.418;2023-04-25T07:40:23;96020.25;;;12.02;47.95
50977;BME280;36992;48.200;12.418;2023-04-25T07:42:49;96026.63;;;11.97;48.15
50977;BME280;36992;48.200;12.418;2023-04-25T07:45:16;96030.28;;;11.93;48.40
50977;BME280;36992;48.200;12.418;2023-04-25T07:47:43;96030.13;;;11.89;47.68
50977;BME280;36992;48.200;12.418;2023-04-25T07:50:10;96044.88;;;11.83;47.93
50977;BME280;36992;48.200;12.418;2023-04-25T07:52:37;96038.06;;;11.77;48.95
50977;BME280;36992;48.200;12.418;2023-04-25T07:55:04;96047.41;;;11.70;48.62
50977;BME280;36992;48.200;12.418;2023-04-25T07:57:32;96054.06;;;11.64;49.24
50977;BME280;36992;48.200;12.418;2023-04-25T07:59:58;96052.94;;;11.56;50.33
50977;BME280;36992;48.200;12.418;2023-04-25T08:02:25;96052.78;;;11.53;50.26
50977;BME280;36992;48.200;12.418;2023-04-25T08:04:53;96056.06;;;11.50;49.67
50977;BME280;36992;48.200;12.418;2023-04-25T08:07:20;96062.72;;;11.43;50.37
50977;BME280;36992;48.200;12.418;2023-04-25T08:09:46;96073.66;;;11.38;50.14
50977;BME280;36992;48.200;12.418;2023-04-25T08:12:13;96069.50;;;11.32;50.30
50977;BME280;36992;48.200;12.418;2023-04-25T08:14:41;96064.75;;;11.29;50.33
50977;BME280;36992;48.200;12.418;2023-04-25T08:17:07;96070.28;;;11.24;50.98
50977;BME280;36992;48.200;12.418;2023-04-25T08:19:34;96074.22;;;11.17;52.16
50977;BME280;36992;48.200;12.418;2023-04-25T08:22:00;96067.84;;;11.13;51.37
50977;BME280;36992;48.200;12.418;2023-04-25T08:24:27;96076.59;;;11.10;51.44
50977;BME280;36992;48.200;12.418;2023-04-25T08:26:53;96066.91;;;11.09;51.95
50977;BME280;36992;48.200;12.418;2023-04-25T08:29:20;96076.88;;;11.09;50.84
50977;BME280;36992;48.200;12.418;2023-04-25T08:31:50;96071.50;;;11.09;51.10
50977;BME280;36992;48.200;12.418;2023-04-25T08:34:17;96083.69;;;11.06;51.12
50977;BME280;36992;48.200;12.418;2023-04-25T08:36:45;96076.72;;;11.05;50.97
50977;BME280;36992;48.200;12.418;2023-04-25T08:39:11;96074.31;;;11.03;52.04
50977;BME280;36992;48.200;12.418;2023-04-25T08:41:38;96059.91;;;10.99;51.79
50977;BME280;36992;48.200;12.418;2023-04-25T08:44:08;96068.47;;;11.01;52.49
50977;BME280;36992;48.200;12.418;2023-04-25T08:46:37;96068.16;;;11.03;52.47
50977;BME280;36992;48.200;12.418;2023-04-25T08:49:06;96068.94;;;11.03;53.47
50977;BME280;36992;48.200;12.418;2023-04-25T08:51:36;96065.63;;;11.06;53.58
50977;BME280;36992;48.200;12.418;2023-04-25T08:54:08;96063.56;;;11.12;53.68
50977;BME280;36992;48.200;12.418;2023-04-25T08:56:36;96070.56;;;11.13;53.50
50977;BME280;36992;48.200;12.418;2023-04-25T08:59:04;96075.81;;;11.18;53.09
50977;BME280;36992;48.200;12.418;2023-04-25T09:01:33;96072.97;;;11.24;53.94
50977;BME280;36992;48.200;12.418;2023-04-25T09:04:00;96076.34;;;11.29;53.88
50977;BME280;36992;48.200;12.418;2023-04-25T09:06:28;96073.19;;;11.36;53.39
50977;BME280;36992;48.200;12.418;2023-04-25T09:09:01;96071.63;;;11.44;52.35
50977;BME280;36992;48.200;12.418;2023-04-25T09:11:29;96074.00;;;11.45;54.08
50977;BME280;36992;48.200;12.418;2023-04-25T09:14:10;96071.97;;;11.60;52.57
50977;BME280;36992;48.200;12.418;2023-04-25T09:16:57;96062.31;;;11.68;52.65
50977;BME280;36992;48.200;12.418;2023-04-25T09:19:26;96062.47;;;11.71;52.50
50977;BME280;36992;48.200;12.418;2023-04-25T09:21:56;96059.47;;;11.82;52.16
50977;BME280;36992;48.200;12.418;2023-04-25T09:24:33;96058.38;;;11.92;52.16
50977;BME280;36992;48.200;12.418;2023-04-25T09:27:03;96054.06;;;11.99;53.41
50977;BME280;36992;48.200;12.418;2023-04-25T09:29:30;96056.66;;;12.05;51.32
50977;BME280;36992;48.200;12.418;2023-04-25T09:32:15;96057.28;;;12.19;52.11
50977;BME280;36992;48.200;12.418;2023-04-25T09:34:42;96052.84;;;12.23;51.41
50977;BME280;36992;48.200;12.418;2023-04-25T09:37:11;96048.69;;;12.35;50.71
50977;BME280;36992;48.200;12.418;2023-04-25T09:39:38;96047.88;;;12.43;52.01
50977;BME280;36992;48.200;12.418;2023-04-25T09:42:05;96045.16;;;12.52;51.11
50977;BME280;36992;48.200;12.418;2023-04-25T09:44:32;96047.84;;;12.61;51.64
50977;BME280;36992;48.200;12.418;2023-04-25T09:46:58;96051.00;;;12.72;48.86
50977;BME280;36992;48.200;12.418;2023-04-25T09:49:26;96048.28;;;12.80;48.58
50977;BME280;36992;48.200;12.418;2023-04-25T09:51:57;96041.88;;;12.94;48.93
50977;BME280;36992;48.200;12.418;2023-04-25T09:54:25;96042.19;;;13.01;47.72
50977;BME280;36992;48.200;12.418;2023-04-25T09:56:53;96038.19;;;13.07;47.88
50977;BME280;36992;48.200;12.418;2023-04-25T09:59:20;96032.56;;;13.13;45.80
50977;BME280;36992;48.200;12.418;2023-04-25T10:01:48;96033.34;;;13.22;46.34
50977;BME280;36992;48.200;12.418;2023-04-25T10:04:19;96035.66;;;13.32;46.72
50977;BME280;36992;48.200;12.418;2023-04-25T10:06:48;96032.75;;;13.38;46.13
50977;BME280;36992;48.200;12.418;2023-04-25T10:09:16;96027.16;;;13.43;45.70
50977;BME280;36992;48.200;12.418;2023-04-25T10:11:44;96039.72;;;13.47;44.00
50977;BME280;36992;48.200;12.418;2023-04-25T10:14:13;96033.81;;;13.54;42.22
50977;BME280;36992;48.200;12.418;2023-04-25T10:16:41;96038.78;;;13.52;41.97
50977;BME280;36992;48.200;12.418;2023-04-25T10:19:08;96043.50;;;13.55;41.63
50977;BME280;36992;48.200;12.418;2023-04-25T10:21:40;96048.28;;;13.58;42.77
50977;BME280;36992;48.200;12.418;2023-04-25T10:24:11;96065.16;;;13.55;43.54
50977;BME280;36992;48.200;12.418;2023-04-25T10:26:38;96053.88;;;13.53;43.74
50977;BME280;36992;48.200;12.418;2023-04-25T10:29:06;96060.88;;;13.54;44.71
50977;BME280;36992;48.200;12.418;2023-04-25T10:31:33;96067.28;;;13.49;45.31
50977;BME280;36992;48.200;12.418;2023-04-25T10:34:00;96069.84;;;13.46;44.52
50977;BME280;36992;48.200;12.418;2023-04-25T10:36:31;96074.75;;;13.44;46.00
50977;BME280;36992;48.200;12.418;2023-04-25T10:39:03;96066.34;;;13.36;45.87
50977;BME280;36992;48.200;12.418;2023-04-25T10:41:45;96064.31;;;13.33;46.42
50977;BME280;36992;48.200;12.418;2023-04-25T10:44:14;96060.97;;;13.28;46.79
50977;BME280;36992;48.200;12.418;2023-04-25T10:46:41;96060.84;;;13.24;47.13
50977;BME280;36992;48.200;12.418;2023-04-25T10:49:10;96053.84;;;13.23;48.35
50977;BME280;36992;48.200;12.418;2023-04-25T10:51:37;96053.84;;;13.23;47.77
50977;BME280;36992;48.200;12.418;2023-04-25T10:54:04;96050.00;;;13.24;48.59
50977;BME280;36992;48.200;12.418;2023-04-25T10:56:32;96044.75;;;13.28;47.49
50977;BME280;36992;48.200;12.418;2023-04-25T10:59:08;96042.81;;;13.37;47.77
50977;BME280;36992;48.200;12.418;2023-04-25T11:01:38;96030.53;;;13.40;45.82
50977;BME280;36992;48.200;12.418;2023-04-25T11:04:05;96035.28;;;13.43;44.03
50977;BME280;36992;48.200;12.418;2023-04-25T11:06:46;96038.28;;;13.50;45.92
50977;BME280;36992;48.200;12.418;2023-04-25T11:09:17;96033.69;;;13.51;45.28
50977;BME280;36992;48.200;12.418;2023-04-25T11:11:53;96029.66;;;13.57;45.29
50977;BME280;36992;48.200;12.418;2023-04-25T11:14:20;96029.97;;;13.55;45.31
50977;BME280;36992;48.200;12.418;2023-04-25T11:16:52;96020.69;;;13.65;45.68
50977;BME280;36992;48.200;12.418;2023-04-25T11:19:19;96016.53;;;13.68;44.58
50977;BME280;36992;48.200;12.418;2023-04-25T11:21:46;96017.91;;;13.74;44.67
50977;BME280;36992;48.200;12.418;2023-04-25T11:24:12;96012.31;;;13.79;43.73
50977;BME280;36992;48.200;12.418;2023-04-25T11:26:41;96011.81;;;13.86;44.51
50977;BME280;36992;48.200;12.418;2023-04-25T11:29:07;96014.16;;;13.87;44.33
50977;BME280;36992;48.200;12.418;2023-04-25T11:31:34;96024.78;;;13.93;44.46
50977;BME280;36992;48.200;12.418;2023-04-25T11:34:02;96023.34;;;13.95;44.21
50977;BME280;36992;48.200;12.418;2023-04-25T11:36:28;96023.47;;;13.99;45.73
50977;BME280;36992;48.200;12.418;2023-04-25T11:38:56;96027.44;;;14.01;44.83
50977;BME280;36992;48.200;12.418;2023-04-25T11:41:22;96025.97;;;14.04;43.55
50977;BME280;36992;48.200;12.418;2023-04-25T11:43:49;96037.75;;;14.08;43.94
50977;BME280;36992;48.200;12.418;2023-04-25T11:46:17;96054.13;;;14.12;44.39
50977;BME280;36992;48.200;12.418;2023-04-25T11:48:45;96074.41;;;14.06;43.24
50977;BME280;36992;48.200;12.418;2023-04-25T11:51:14;96081.06;;;14.08;43.19
50977;BME280;36992;48.200;12.418;2023-04-25T11:53:41;96061.25;;;13.95;43.69
50977;BME280;36992;48.200;12.418;2023-04-25T11:56:09;96065.09;;;13.94;43.50
50977;BME280;36992;48.200;12.418;2023-04-25T11:58:54;96053.19;;;13.86;43.61
50977;BME280;36992;48.200;12.418;2023-04-25T12:01:26;96043.88;;;13.75;43.22
50977;BME280;36992;48.200;12.418;2023-04-25T12:03:52;96053.47;;;13.63;43.61
50977;BME280;36992;48.200;12.418;2023-04-25T12:06:20;96052.56;;;13.59;43.16
50977;BME280;36992;48.200;12.418;2023-04-25T12:08:59;96064.97;;;13.60;44.12
50977;BME280;36992;48.200;12.418;2023-04-25T12:11:26;96070.13;;;13.53;43.66
50977;BME280;36992;48.200;12.418;2023-04-25T12:13:52;96082.84;;;13.53;43.31
50977;BME280;36992;48.200;12.418;2023-04-25T12:16:19;96108.19;;;13.48;42.94
50977;BME280;36992;48.200;12.418;2023-04-25T12:18:45;96134.13;;;13.40;45.28
50977;BME280;36992;48.200;12.418;2023-04-25T12:21:12;96151.50;;;13.30;46.07
50977;BME280;36992;48.200;12.418;2023-04-25T12:23:40;96156.94;;;13.13;47.18
50977;BME280;36992;48.200;12.418;2023-04-25T12:26:06;96158.91;;;12.94;48.23
50977;BME280;36992;48.200;12.418;2023-04-25T12:28:44;96153.84;;;12.75;48.35
50977;BME280;36992;48.200;12.418;2023-04-25T12:31:17;96160.22;;;12.53;49.42
50977;BME280;36992;48.200;12.418;2023-04-25T12:33:44;96165.31;;;12.37;49.61
50977;BME280;36992;48.200;12.418;2023-04-25T12:36:12;96168.13;;;12.23;49.68
50977;BME280;36992;48.200;12.418;2023-04-25T12:38:41;96161.78;;;12.10;50.22
50977;BME280;36992;48.200;12.418;2023-04-25T12:41:08;96173.78;;;11.95;50.04
50977;BME280;36992;48.200;12.418;2023-04-25T12:43:35;96163.13;;;11.81;51.26
50977;BME280;36992;48.200;12.418;2023-04-25T12:46:01;96153.09;;;11.72;51.48
50977;BME280;36992;48.200;12.418;2023-04-25T12:48:28;96162.13;;;11.68;51.48
50977;BME280;36992;48.200;12.418;2023-04-25T12:50:54;96154.97;;;11.63;52.39
50977;BME280;36992;48.200;12.418;2023-04-25T12:53:22;96164.16;;;11.62;52.74